Historique des stations

Station météo de Levroux

Altitude de la station : 157 m







Données météorologiques pour le 10/04/2021
Date
Heure
Températures Humidité Point de rosée Vitesse
du vent
Direction Rafales Windchill Pression Pluviométrie
Cumul
Date
Heure
Températures Humidité Point de rosée Vitesse
du vent
Direction Rafales Windchill Pression Pluviométrie
Cumul
10/04/2021 21:1511.8 °C92 %10.6 °C2 km/hN24 km/h11.7 1009 hPa2.6 mm
10/04/2021 21:0011.8 °C91 %10.6 °C-N24 km/h11.7 1009 hPa2.6 mm
10/04/2021 20:4511.9 °C91 %10.6 °C2 km/hN24 km/h12.2 1009 hPa2.4 mm
10/04/2021 20:3012.1 °C90 %10.6 °C2 km/hN24 km/h12.2 1009 hPa2.4 mm
10/04/2021 20:1512.3 °C89 %10.6 °C2 km/hN24 km/h12.2 1009 hPa2 mm
10/04/2021 20:0012.4 °C89 %10.6 °C3 km/hN24 km/h12.2 1009 hPa2 mm
10/04/2021 19:4512.5 °C89 %10.6 °C-N24 km/h12.8 1009 hPa2 mm
10/04/2021 19:3012.6 °C89 %11.1 °C-N24 km/h12.8 1009 hPa2 mm
10/04/2021 19:1512.7 °C88 %11.1 °C-N24 km/h12.8 1009 hPa1.8 mm
10/04/2021 18:5912.9 °C87 %10.6 °C2 km/hN24 km/h12.8 1009 hPa1.8 mm
10/04/2021 18:4413.1 °C85 %10.6 °C2 km/hN24 km/h13.3 1009 hPa1.6 mm
10/04/2021 18:2913.4 °C84 %10.6 °C2 km/hN24 km/h13.3 1009 hPa1.4 mm
10/04/2021 18:1413.6 °C86 %11.1 °C-N24 km/h13.3 1009 hPa1.4 mm
10/04/2021 17:5913.4 °C86 %11.1 °C-N24 km/h13.3 1010 hPa1.4 mm
10/04/2021 17:4413.4 °C85 %11.1 °C2 km/hN24 km/h13.3 1010 hPa1.4 mm
10/04/2021 17:2913.2 °C85 %10.6 °C-N24 km/h13.3 1010 hPa1.4 mm
10/04/2021 17:1412.9 °C86 %10.6 °C3 km/hN24 km/h12.8 1010 hPa1.4 mm
10/04/2021 16:5912.4 °C88 %10.6 °C2 km/hN24 km/h12.2 1010 hPa1.4 mm
10/04/2021 16:4412.3 °C87 %10.0 °C-N24 km/h12.2 1010 hPa1.4 mm
10/04/2021 16:2912.2 °C87 %10.0 °C2 km/hN24 km/h12.2 1010 hPa1.4 mm
10/04/2021 16:1412.2 °C87 %10.0 °C2 km/hN24 km/h12.2 1011 hPa1.4 mm
10/04/2021 15:5912.4 °C87 %10.6 °C3 km/hN24 km/h12.2 1011 hPa1.4 mm
10/04/2021 15:4412.5 °C86 %10.0 °C3 km/hN24 km/h12.8 1011 hPa1.2 mm
10/04/2021 15:2912.6 °C84 %10.0 °C3 km/hN24 km/h12.8 1011 hPa1 mm
10/04/2021 15:1413.0 °C84 %10.6 °C-N24 km/h12.8 1011 hPa0.4 mm
10/04/2021 14:5913.1 °C82 %10.0 °C2 km/hN24 km/h13.3 1011 hPa-
10/04/2021 14:4413.4 °C79 %10.0 °C2 km/hN24 km/h13.3 1011 hPa-
10/04/2021 14:2913.9 °C75 %9.4 °C2 km/hN24 km/h13.9 1011 hPa-
10/04/2021 14:1414.5 °C69 %8.9 °C2 km/hN24 km/h14.4 1011 hPa-
10/04/2021 13:5914.7 °C68 %8.9 °C2 km/hN24 km/h15.0 1011 hPa-
10/04/2021 13:4415.1 °C67 %8.9 °C3 km/hN24 km/h15.0 1011 hPa-
10/04/2021 13:2915.3 °C66 %8.9 °C3 km/hN24 km/h15.6 1011 hPa-
10/04/2021 13:1415.3 °C66 %8.9 °C3 km/hN24 km/h15.6 1011 hPa-
10/04/2021 12:5915.5 °C66 %8.9 °C6 km/hN24 km/h15.6 1012 hPa-
10/04/2021 12:4414.8 °C66 %8.3 °C2 km/hN24 km/h15.0 1012 hPa-
10/04/2021 12:3014.7 °C68 %8.9 °C10 km/hN24 km/h13.9 1012 hPa-
10/04/2021 12:1514.3 °C69 %8.9 °C-N24 km/h14.4 1012 hPa-
10/04/2021 11:5913.9 °C69 %8.3 °C3 km/hN24 km/h13.9 1012 hPa-
10/04/2021 11:4513.5 °C70 %8.3 °C3 km/hN24 km/h13.3 1012 hPa-
10/04/2021 11:3013.3 °C70 %7.8 °C3 km/hN24 km/h13.3 1012 hPa-
10/04/2021 11:1513.2 °C71 %7.8 °C2 km/hN24 km/h13.3 1012 hPa-
10/04/2021 11:0012.9 °C71 %7.8 °C3 km/hN24 km/h12.8 1012 hPa-
10/04/2021 10:4512.6 °C71 %7.2 °C5 km/hN24 km/h12.8 1012 hPa-
10/04/2021 10:3012.2 °C72 %7.2 °C-N24 km/h12.2 1012 hPa-
10/04/2021 10:1511.9 °C73 %7.2 °C-N24 km/h12.2 1012 hPa-
10/04/2021 10:0011.7 °C73 %7.2 °C2 km/hN24 km/h11.7 1012 hPa-
10/04/2021 09:4511.4 °C74 %7.2 °C-N24 km/h11.7 1012 hPa-
10/04/2021 09:3011.2 °C75 %6.7 °C6 km/hN24 km/h11.1 1012 hPa-
10/04/2021 09:1510.9 °C76 %6.7 °C2 km/hN24 km/h11.1 1012 hPa-
10/04/2021 09:0010.6 °C77 %6.7 °C-N24 km/h10.6 1013 hPa-
10/04/2021 08:4510.4 °C77 %6.7 °C2 km/hN24 km/h10.6 1013 hPa-
10/04/2021 08:3010.2 °C78 %6.7 °C2 km/hN24 km/h10.0 1013 hPa-
10/04/2021 08:159.9 °C79 %6.7 °C2 km/hN24 km/h10.0 1013 hPa-
10/04/2021 08:009.8 °C80 %6.7 °C-N24 km/h10.0 1013 hPa-
10/04/2021 07:449.7 °C80 %6.7 °C-N24 km/h10.0 1013 hPa-
10/04/2021 07:299.7 °C80 %6.7 °C-N24 km/h10.0 1013 hPa-
10/04/2021 07:159.8 °C79 %6.1 °C-N24 km/h10.0 1013 hPa-
10/04/2021 06:599.9 °C79 %6.7 °C-N24 km/h10.0 1013 hPa-
10/04/2021 06:4410.0 °C79 %6.7 °C-N24 km/h10.0 1013 hPa-
10/04/2021 06:3010.1 °C78 %6.7 °C2 km/hN24 km/h10.0 1013 hPa-
10/04/2021 06:1510.3 °C77 %6.7 °C-N24 km/h10.6 1013 hPa-
10/04/2021 06:0010.4 °C77 %6.7 °C-N24 km/h10.6 1013 hPa-
10/04/2021 05:4510.6 °C76 %6.7 °C2 km/hN24 km/h10.6 1013 hPa-
10/04/2021 05:3010.8 °C75 %6.7 °C2 km/hN24 km/h11.1 1013 hPa-
10/04/2021 05:1510.9 °C75 %6.7 °C3 km/hN24 km/h11.1 1013 hPa-
10/04/2021 05:0011.1 °C74 %6.7 °C3 km/hN24 km/h11.1 1013 hPa-
10/04/2021 04:4511.2 °C74 %6.7 °C5 km/hN24 km/h11.1 1014 hPa-
10/04/2021 04:3011.4 °C73 %6.7 °C3 km/hN24 km/h11.7 1014 hPa-
10/04/2021 04:1411.6 °C72 %6.7 °C3 km/hN24 km/h11.7 1014 hPa-
10/04/2021 03:5911.7 °C71 %6.7 °C3 km/hN24 km/h11.7 1014 hPa-
10/04/2021 03:4411.9 °C70 %6.7 °C5 km/hN24 km/h11.7 1014 hPa-
10/04/2021 03:2912.0 °C70 %6.7 °C2 km/hN24 km/h12.2 1014 hPa-
10/04/2021 03:1412.1 °C69 %6.7 °C3 km/hN24 km/h12.2 1014 hPa-
10/04/2021 02:5911.9 °C70 %6.7 °C3 km/hN24 km/h11.7 1014 hPa-
10/04/2021 02:4411.9 °C69 %6.7 °C2 km/hN24 km/h12.2 1014 hPa-
10/04/2021 02:2912.3 °C68 %6.7 °C2 km/hN24 km/h12.2 1015 hPa-
10/04/2021 02:1412.6 °C67 %6.7 °C3 km/hN24 km/h12.8 1015 hPa-
10/04/2021 01:5912.7 °C67 %6.7 °C5 km/hN24 km/h12.8 1015 hPa-
10/04/2021 01:4412.9 °C66 %6.7 °C3 km/hN24 km/h12.8 1015 hPa-
10/04/2021 01:2912.9 °C67 %6.7 °C5 km/hN24 km/h12.8 1015 hPa-
10/04/2021 01:1413.1 °C69 %7.2 °C2 km/hN18 km/h13.3 1015 hPa-
10/04/2021 00:5913.3 °C69 %7.8 °C-N18 km/h13.3 1015 hPa-
10/04/2021 00:4413.5 °C69 %7.8 °C2 km/hN18 km/h13.3 1015 hPa-
10/04/2021 00:2913.7 °C68 %7.8 °C2 km/hN18 km/h13.9 1015 hPa-
10/04/2021 00:1413.9 °C68 %7.8 °C3 km/hN18 km/h13.9 1015 hPa-


Minima :

Température : 9.7 °C
Humidité : 66 %
Point de rosée : 6.1 °C
Vent moyen : 2 km/h
Windchill : 10.0
Pression atm. : 1009 hPa
Maxima :

Température : 15.5 °C
Humidité : 92 %
Point de rosée : 11.1 °C
Vent moyen : 10 km/h
Windchill : 15.6
Pression atm. : 1015 hPa
Rafales max : 24 km/h
Cumul de pluie sur 24H : 2.6 mm

Levroux est une commune du département Indre (36).
La station météorologique du réseau de l'association la plus proche de Levroux est celle de Ménétréols-sous-Vatan



Icône Facebook Association Météo Centre Icône Twitter Association Météo Centre Icône Chaîne Youtube Association Météo Centre Icône contact Association Météo Centre Icône Insta Association Météo Centre